sensor_id;sensor_type;location;lat;lon;timestamp;pressure;altitude;pressure_sealevel;temperature;humidity
58245;BME280;44550;43.864;25.986;2022-07-01T00:02:20;100855.38;;;27.18;55.95
58245;BME280;44550;43.864;25.986;2022-07-01T00:06:20;100845.63;;;26.71;57.09
58245;BME280;44550;43.864;25.986;2022-07-01T00:10:20;100852.00;;;26.54;57.54
58245;BME280;44550;43.864;25.986;2022-07-01T00:14:22;100856.91;;;26.46;57.72
58245;BME280;44550;43.864;25.986;2022-07-01T00:18:22;100847.97;;;26.45;57.63
58245;BME280;44550;43.864;25.986;2022-07-01T00:22:22;100846.59;;;26.38;57.88
58245;BME280;44550;43.864;25.986;2022-07-01T00:26:21;100857.94;;;26.28;58.11
58245;BME280;44550;43.864;25.986;2022-07-01T00:30:23;100866.78;;;26.14;58.76
58245;BME280;44550;43.864;25.986;2022-07-01T00:34:23;100869.41;;;25.82;59.70
58245;BME280;44550;43.864;25.986;2022-07-01T00:38:23;100872.06;;;25.99;59.33
58245;BME280;44550;43.864;25.986;2022-07-01T00:42:22;100862.19;;;26.00;59.73
58245;BME280;44550;43.864;25.986;2022-07-01T00:46:24;100867.47;;;25.68;60.75
58245;BME280;44550;43.864;25.986;2022-07-01T00:50:25;100855.09;;;25.66;60.66
58245;BME280;44550;43.864;25.986;2022-07-01T00:54:25;100858.84;;;25.79;60.21
58245;BME280;44550;43.864;25.986;2022-07-01T00:58:26;100855.19;;;25.97;59.82
58245;BME280;44550;43.864;25.986;2022-07-01T01:02:28;100856.22;;;26.11;59.49
58245;BME280;44550;43.864;25.986;2022-07-01T01:06:28;100851.66;;;26.13;59.27
58245;BME280;44550;43.864;25.986;2022-07-01T01:10:28;100843.63;;;26.13;59.37
58245;BME280;44550;43.864;25.986;2022-07-01T01:14:28;100847.31;;;26.10;59.44
58245;BME280;44550;43.864;25.986;2022-07-01T01:18:30;100848.59;;;25.87;60.58
58245;BME280;44550;43.864;25.986;2022-07-01T01:22:33;100854.41;;;25.62;61.39
58245;BME280;44550;43.864;25.986;2022-07-01T01:26:32;100857.75;;;25.50;61.86
58245;BME280;44550;43.864;25.986;2022-07-01T01:30:32;100851.22;;;25.38;62.20
58245;BME280;44550;43.864;25.986;2022-07-01T01:34:32;100856.44;;;25.41;62.14
58245;BME280;44550;43.864;25.986;2022-07-01T01:38:36;100851.97;;;25.24;62.61
58245;BME280;44550;43.864;25.986;2022-07-01T01:42:36;100859.75;;;25.12;63.30
58245;BME280;44550;43.864;25.986;2022-07-01T01:46:41;100859.09;;;25.06;63.37
58245;BME280;44550;43.864;25.986;2022-07-01T01:50:55;100845.00;;;25.03;63.01
58245;BME280;44550;43.864;25.986;2022-07-01T01:55:01;100851.88;;;25.08;62.86
58245;BME280;44550;43.864;25.986;2022-07-01T01:59:01;100851.97;;;25.07;63.00
58245;BME280;44550;43.864;25.986;2022-07-01T02:03:02;100855.81;;;25.01;63.08
58245;BME280;44550;43.864;25.986;2022-07-01T02:07:04;100861.00;;;25.04;62.64
58245;BME280;44550;43.864;25.986;2022-07-01T02:11:07;100848.72;;;25.00;62.71
58245;BME280;44550;43.864;25.986;2022-07-01T02:15:08;100861.31;;;24.98;62.82
58245;BME280;44550;43.864;25.986;2022-07-01T02:19:08;100865.41;;;24.88;63.19
58245;BME280;44550;43.864;25.986;2022-07-01T02:23:08;100874.28;;;24.89;62.72
58245;BME280;44550;43.864;25.986;2022-07-01T02:27:09;100879.56;;;24.90;62.32
58245;BME280;44550;43.864;25.986;2022-07-01T02:31:09;100876.66;;;24.77;62.89
58245;BME280;44550;43.864;25.986;2022-07-01T02:35:09;100886.41;;;24.78;63.34
58245;BME280;44550;43.864;25.986;2022-07-01T02:39:10;100870.94;;;24.66;63.62
58245;BME280;44550;43.864;25.986;2022-07-01T02:43:12;100861.22;;;24.65;63.21
58245;BME280;44550;43.864;25.986;2022-07-01T02:47:13;100868.22;;;24.68;62.30
58245;BME280;44550;43.864;25.986;2022-07-01T02:51:12;100866.25;;;24.71;61.51
58245;BME280;44550;43.864;25.986;2022-07-01T02:55:13;100873.97;;;24.77;61.30
58245;BME280;44550;43.864;25.986;2022-07-01T02:59:14;100886.25;;;24.81;61.35
58245;BME280;44550;43.864;25.986;2022-07-01T03:03:14;100879.63;;;25.06;61.48
58245;BME280;44550;43.864;25.986;2022-07-01T03:07:13;100890.97;;;25.46;59.39
58245;BME280;44550;43.864;25.986;2022-07-01T03:11:13;100888.63;;;25.90;57.74
58245;BME280;44550;43.864;25.986;2022-07-01T03:15:15;100886.66;;;26.25;56.79
58245;BME280;44550;43.864;25.986;2022-07-01T03:19:15;100896.19;;;26.47;56.17
58245;BME280;44550;43.864;25.986;2022-07-01T03:23:14;100900.22;;;26.38;56.96
58245;BME280;44550;43.864;25.986;2022-07-01T03:27:14;100893.22;;;26.04;60.29
58245;BME280;44550;43.864;25.986;2022-07-01T03:31:16;100888.81;;;26.03;60.67
58245;BME280;44550;43.864;25.986;2022-07-01T03:35:16;100892.44;;;26.18;61.63
58245;BME280;44550;43.864;25.986;2022-07-01T03:39:32;100889.59;;;26.21;61.80
58245;BME280;44550;43.864;25.986;2022-07-01T03:43:35;100897.06;;;26.16;62.69
58245;BME280;44550;43.864;25.986;2022-07-01T03:47:37;100893.13;;;26.21;63.48
58245;BME280;44550;43.864;25.986;2022-07-01T03:51:36;100898.00;;;26.31;63.25
58245;BME280;44550;43.864;25.986;2022-07-01T03:55:36;100905.88;;;26.34;63.18
58245;BME280;44550;43.864;25.986;2022-07-01T03:59:37;100903.03;;;26.53;62.93
58245;BME280;44550;43.864;25.986;2022-07-01T04:03:39;100908.66;;;26.64;62.67
58245;BME280;44550;43.864;25.986;2022-07-01T04:07:40;100908.81;;;26.61;62.54
58245;BME280;44550;43.864;25.986;2022-07-01T04:11:41;100912.19;;;26.64;62.67
58245;BME280;44550;43.864;25.986;2022-07-01T04:15:41;100922.97;;;26.79;62.48
58245;BME280;44550;43.864;25.986;2022-07-01T04:19:43;100930.78;;;26.67;62.96
58245;BME280;44550;43.864;25.986;2022-07-01T04:23:45;100937.91;;;26.53;63.61
58245;BME280;44550;43.864;25.986;2022-07-01T04:27:44;100927.16;;;26.68;62.73
58245;BME280;44550;43.864;25.986;2022-07-01T04:31:44;100930.44;;;26.89;62.24
58245;BME280;44550;43.864;25.986;2022-07-01T04:35:50;100932.28;;;27.19;60.84
58245;BME280;44550;43.864;25.986;2022-07-01T04:39:49;100927.25;;;27.43;59.10
58245;BME280;44550;43.864;25.986;2022-07-01T04:43:49;100938.38;;;27.51;58.45
58245;BME280;44550;43.864;25.986;2022-07-01T04:47:49;100932.59;;;27.87;57.53
58245;BME280;44550;43.864;25.986;2022-07-01T04:51:51;100941.16;;;28.64;55.14
58245;BME280;44550;43.864;25.986;2022-07-01T04:55:50;100941.66;;;29.50;52.78
58245;BME280;44550;43.864;25.986;2022-07-01T04:59:50;100938.50;;;29.31;51.85
58245;BME280;44550;43.864;25.986;2022-07-01T05:03:50;100951.59;;;29.10;52.44
58245;BME280;44550;43.864;25.986;2022-07-01T05:07:52;100947.88;;;28.71;53.48
58245;BME280;44550;43.864;25.986;2022-07-01T05:11:52;100953.97;;;29.15;53.16
58245;BME280;44550;43.864;25.986;2022-07-01T05:15:52;100956.63;;;29.42;52.02
58245;BME280;44550;43.864;25.986;2022-07-01T05:19:51;100951.03;;;29.45;51.50
58245;BME280;44550;43.864;25.986;2022-07-01T05:24:09;100947.72;;;29.92;50.60
58245;BME280;44550;43.864;25.986;2022-07-01T05:28:12;100941.44;;;30.17;49.90
58245;BME280;44550;43.864;25.986;2022-07-01T05:32:12;100937.97;;;30.28;49.03
58245;BME280;44550;43.864;25.986;2022-07-01T05:36:12;100942.94;;;30.95;47.76
58245;BME280;44550;43.864;25.986;2022-07-01T05:40:14;100949.38;;;30.81;48.04
58245;BME280;44550;43.864;25.986;2022-07-01T05:44:14;100956.47;;;31.30;46.45
58245;BME280;44550;43.864;25.986;2022-07-01T05:48:14;100957.22;;;31.79;44.95
58245;BME280;44550;43.864;25.986;2022-07-01T05:52:13;100962.78;;;32.56;42.93
58245;BME280;44550;43.864;25.986;2022-07-01T05:56:15;100950.31;;;33.08;42.46
58245;BME280;44550;43.864;25.986;2022-07-01T06:00:16;100963.41;;;33.24;41.32
58245;BME280;44550;43.864;25.986;2022-07-01T06:04:15;100959.22;;;32.99;40.73
58245;BME280;44550;43.864;25.986;2022-07-01T06:08:15;100939.81;;;32.71;42.06
58245;BME280;44550;43.864;25.986;2022-07-01T06:12:17;100952.94;;;32.87;41.93
58245;BME280;44550;43.864;25.986;2022-07-01T06:16:20;100964.56;;;33.21;40.17
58245;BME280;44550;43.864;25.986;2022-07-01T06:20:28;100954.41;;;33.03;37.33
58245;BME280;44550;43.864;25.986;2022-07-01T06:24:28;100969.56;;;33.05;39.18
58245;BME280;44550;43.864;25.986;2022-07-01T06:28:30;100972.53;;;33.44;38.94
58245;BME280;44550;43.864;25.986;2022-07-01T06:32:32;100980.41;;;33.47;39.60
58245;BME280;44550;43.864;25.986;2022-07-01T06:36:32;100969.97;;;34.05;38.47
58245;BME280;44550;43.864;25.986;2022-07-01T06:40:32;100964.72;;;33.92;38.64
58245;BME280;44550;43.864;25.986;2022-07-01T06:44:34;100973.59;;;34.16;38.17
58245;BME280;44550;43.864;25.986;2022-07-01T06:48:34;100971.69;;;34.06;38.58
58245;BME280;44550;43.864;25.986;2022-07-01T06:52:34;100966.97;;;33.87;38.81
58245;BME280;44550;43.864;25.986;2022-07-01T06:56:37;100971.59;;;33.97;38.04
58245;BME280;44550;43.864;25.986;2022-07-01T07:00:39;100970.41;;;34.41;37.68
58245;BME280;44550;43.864;25.986;2022-07-01T07:04:39;100965.03;;;34.70;36.16
58245;BME280;44550;43.864;25.986;2022-07-01T07:08:56;100961.66;;;34.97;36.20
58245;BME280;44550;43.864;25.986;2022-07-01T07:13:02;100961.97;;;35.14;36.23
58245;BME280;44550;43.864;25.986;2022-07-01T07:17:04;100955.94;;;35.20;36.42
58245;BME280;44550;43.864;25.986;2022-07-01T07:21:04;100957.50;;;35.13;35.92
58245;BME280;44550;43.864;25.986;2022-07-01T07:25:10;100943.19;;;34.72;35.70
58245;BME280;44550;43.864;25.986;2022-07-01T07:29:15;100944.50;;;34.27;36.14
58245;BME280;44550;43.864;25.986;2022-07-01T07:33:17;100976.97;;;34.48;37.27
58245;BME280;44550;43.864;25.986;2022-07-01T07:37:22;100974.91;;;34.71;37.54
58245;BME280;44550;43.864;25.986;2022-07-01T07:41:22;100970.91;;;34.66;37.89
58245;BME280;44550;43.864;25.986;2022-07-01T07:45:22;100976.88;;;34.59;37.92
58245;BME280;44550;43.864;25.986;2022-07-01T07:49:24;100943.63;;;33.96;39.52
58245;BME280;44550;43.864;25.986;2022-07-01T07:53:26;100965.72;;;34.53;38.31
58245;BME280;44550;43.864;25.986;2022-07-01T07:57:30;100963.84;;;34.53;38.17
58245;BME280;44550;43.864;25.986;2022-07-01T08:01:43;100962.03;;;34.54;38.06
58245;BME280;44550;43.864;25.986;2022-07-01T08:05:45;100958.97;;;34.47;38.48
58245;BME280;44550;43.864;25.986;2022-07-01T08:09:45;100961.53;;;34.49;37.92
58245;BME280;44550;43.864;25.986;2022-07-01T08:13:46;100962.31;;;34.20;37.79
58245;BME280;44550;43.864;25.986;2022-07-01T08:17:49;100960.28;;;34.12;38.37
58245;BME280;44550;43.864;25.986;2022-07-01T08:21:51;100966.75;;;34.00;38.42
58245;BME280;44550;43.864;25.986;2022-07-01T08:25:51;100955.91;;;34.21;38.47
58245;BME280;44550;43.864;25.986;2022-07-01T08:29:51;100945.88;;;34.62;38.10
58245;BME280;44550;43.864;25.986;2022-07-01T08:33:51;100948.91;;;34.88;37.13
58245;BME280;44550;43.864;25.986;2022-07-01T08:37:54;100950.09;;;34.45;37.26
58245;BME280;44550;43.864;25.986;2022-07-01T08:41:55;100949.53;;;34.42;38.07
58245;BME280;44550;43.864;25.986;2022-07-01T08:45:55;100956.34;;;34.36;37.69
58245;BME280;44550;43.864;25.986;2022-07-01T08:50:02;100941.47;;;34.30;37.95
58245;BME280;44550;43.864;25.986;2022-07-01T08:54:05;100952.78;;;34.35;39.38
58245;BME280;44550;43.864;25.986;2022-07-01T08:58:05;100963.88;;;34.23;39.45
58245;BME280;44550;43.864;25.986;2022-07-01T09:02:05;100960.47;;;34.00;39.74
58245;BME280;44550;43.864;25.986;2022-07-01T09:06:11;100965.00;;;33.89;40.44
58245;BME280;44550;43.864;25.986;2022-07-01T09:10:17;100967.97;;;33.86;41.21
58245;BME280;44550;43.864;25.986;2022-07-01T09:14:17;100963.25;;;34.09;40.33
58245;BME280;44550;43.864;25.986;2022-07-01T09:18:17;100961.59;;;33.97;40.47
58245;BME280;44550;43.864;25.986;2022-07-01T09:22:17;100964.97;;;34.01;39.17
58245;BME280;44550;43.864;25.986;2022-07-01T09:26:21;100959.16;;;34.15;37.77
58245;BME280;44550;43.864;25.986;2022-07-01T09:30:26;100945.47;;;34.26;37.51
58245;BME280;44550;43.864;25.986;2022-07-01T09:34:26;100955.31;;;34.58;34.20
58245;BME280;44550;43.864;25.986;2022-07-01T09:38:26;100949.03;;;34.77;33.41
58245;BME280;44550;43.864;25.986;2022-07-01T09:42:31;100942.47;;;34.79;33.68
58245;BME280;44550;43.864;25.986;2022-07-01T09:46:53;100943.63;;;35.06;34.09
58245;BME280;44550;43.864;25.986;2022-07-01T09:50:58;100942.38;;;35.10;34.36
58245;BME280;44550;43.864;25.986;2022-07-01T09:54:58;100940.94;;;35.06;33.15
58245;BME280;44550;43.864;25.986;2022-07-01T10:04:32;100935.19;;;35.28;33.46
58245;BME280;44550;43.864;25.986;2022-07-01T10:14:10;100924.84;;;35.42;31.42
58245;BME280;44550;43.864;25.986;2022-07-01T10:18:38;100931.06;;;35.24;33.79
58245;BME280;44550;43.864;25.986;2022-07-01T10:28:15;100921.59;;;35.19;31.23
58245;BME280;44550;43.864;25.986;2022-07-01T10:32:27;100916.16;;;34.90;34.42
58245;BME280;44550;43.864;25.986;2022-07-01T10:48:58;100903.72;;;34.77;34.61
58245;BME280;44550;43.864;25.986;2022-07-01T10:52:59;100891.41;;;34.73;33.92
58245;BME280;44550;43.864;25.986;2022-07-01T11:02:30;100882.53;;;35.20;32.93
58245;BME280;44550;43.864;25.986;2022-07-01T11:13:33;100880.22;;;35.44;31.22
58245;BME280;44550;43.864;25.986;2022-07-01T11:18:19;100878.41;;;35.72;30.70
58245;BME280;44550;43.864;25.986;2022-07-01T11:23:56;100883.28;;;35.69;30.87
58245;BME280;44550;43.864;25.986;2022-07-01T11:28:45;100873.16;;;35.51;31.69
58245;BME280;44550;43.864;25.986;2022-07-01T11:33:48;100877.75;;;35.61;30.68
58245;BME280;44550;43.864;25.986;2022-07-01T11:38:14;100867.06;;;35.87;28.42
58245;BME280;44550;43.864;25.986;2022-07-01T11:43:21;100860.34;;;35.81;29.66
58245;BME280;44550;43.864;25.986;2022-07-01T11:52:56;100855.69;;;36.01;29.79
58245;BME280;44550;43.864;25.986;2022-07-01T11:57:14;100840.94;;;36.21;30.36
58245;BME280;44550;43.864;25.986;2022-07-01T12:01:36;100841.56;;;36.33;30.41
58245;BME280;44550;43.864;25.986;2022-07-01T12:06:46;100826.41;;;36.31;30.86
58245;BME280;44550;43.864;25.986;2022-07-01T12:10:57;100820.06;;;36.12;31.43
58245;BME280;44550;43.864;25.986;2022-07-01T12:15:52;100806.69;;;36.19;31.29
58245;BME280;44550;43.864;25.986;2022-07-01T12:20:34;100824.09;;;36.08;31.73
58245;BME280;44550;43.864;25.986;2022-07-01T12:25:22;100785.66;;;35.93;31.07
58245;BME280;44550;43.864;25.986;2022-07-01T12:29:59;100815.13;;;36.43;32.16
58245;BME280;44550;43.864;25.986;2022-07-01T12:39:22;100810.56;;;36.88;30.91
58245;BME280;44550;43.864;25.986;2022-07-01T12:49:20;100796.94;;;37.06;30.62
58245;BME280;44550;43.864;25.986;2022-07-01T12:54:13;100774.81;;;37.09;29.99
58245;BME280;44550;43.864;25.986;2022-07-01T12:58:42;100792.06;;;37.18;30.39
58245;BME280;44550;43.864;25.986;2022-07-01T13:02:57;100793.19;;;37.07;30.53
58245;BME280;44550;43.864;25.986;2022-07-01T13:07:39;100783.09;;;36.99;31.38
58245;BME280;44550;43.864;25.986;2022-07-01T13:12:41;100782.13;;;37.08;30.45
58245;BME280;44550;43.864;25.986;2022-07-01T13:16:43;100773.00;;;36.74;30.65
58245;BME280;44550;43.864;25.986;2022-07-01T13:20:54;100777.53;;;36.47;31.06
58245;BME280;44550;43.864;25.986;2022-07-01T13:25:50;100735.97;;;36.45;31.36
58245;BME280;44550;43.864;25.986;2022-07-01T13:30:12;100784.84;;;36.64;30.89
58245;BME280;44550;43.864;25.986;2022-07-01T13:34:33;100789.13;;;36.31;31.89
58245;BME280;44550;43.864;25.986;2022-07-01T13:38:52;100788.38;;;36.57;31.73
58245;BME280;44550;43.864;25.986;2022-07-01T13:43:08;100780.56;;;36.62;30.98
58245;BME280;44550;43.864;25.986;2022-07-01T13:47:08;100782.53;;;36.52;31.02
58245;BME280;44550;43.864;25.986;2022-07-01T13:51:40;100776.50;;;36.48;30.85
58245;BME280;44550;43.864;25.986;2022-07-01T13:56:30;100789.03;;;36.41;30.17
58245;BME280;44550;43.864;25.986;2022-07-01T14:00:57;100787.66;;;36.37;30.90
58245;BME280;44550;43.864;25.986;2022-07-01T14:05:18;100786.31;;;36.41;30.84
58245;BME280;44550;43.864;25.986;2022-07-01T14:09:23;100778.63;;;36.54;29.95
58245;BME280;44550;43.864;25.986;2022-07-01T14:13:31;100779.34;;;36.56;30.79
58245;BME280;44550;43.864;25.986;2022-07-01T14:22:25;100775.91;;;36.54;29.06
58245;BME280;44550;43.864;25.986;2022-07-01T14:26:35;100751.94;;;36.40;29.84
58245;BME280;44550;43.864;25.986;2022-07-01T14:30:35;100755.28;;;36.52;28.77
58245;BME280;44550;43.864;25.986;2022-07-01T14:34:37;100775.59;;;36.57;29.78
58245;BME280;44550;43.864;25.986;2022-07-01T14:38:41;100773.06;;;36.82;28.75
58245;BME280;44550;43.864;25.986;2022-07-01T14:42:54;100768.53;;;36.90;27.62
58245;BME280;44550;43.864;25.986;2022-07-01T14:47:54;100782.63;;;37.04;28.01
58245;BME280;44550;43.864;25.986;2022-07-01T14:52:32;100784.50;;;37.03;28.07
58245;BME280;44550;43.864;25.986;2022-07-01T14:57:01;100729.25;;;36.75;27.12
58245;BME280;44550;43.864;25.986;2022-07-01T15:01:04;100774.47;;;36.86;26.48
58245;BME280;44550;43.864;25.986;2022-07-01T15:05:07;100775.91;;;36.54;26.37
58245;BME280;44550;43.864;25.986;2022-07-01T15:09:24;100763.84;;;36.57;26.17
58245;BME280;44550;43.864;25.986;2022-07-01T15:13:57;100764.75;;;36.47;27.45
58245;BME280;44550;43.864;25.986;2022-07-01T15:17:57;100764.31;;;36.34;26.78
58245;BME280;44550;43.864;25.986;2022-07-01T15:22:03;100766.09;;;36.61;28.96
58245;BME280;44550;43.864;25.986;2022-07-01T15:26:15;100763.84;;;37.01;26.58
58245;BME280;44550;43.864;25.986;2022-07-01T15:30:15;100775.69;;;37.18;26.90
58245;BME280;44550;43.864;25.986;2022-07-01T15:34:20;100776.00;;;37.41;26.90
58245;BME280;44550;43.864;25.986;2022-07-01T15:38:35;100787.09;;;37.13;26.96
58245;BME280;44550;43.864;25.986;2022-07-01T15:42:37;100777.69;;;37.07;26.80
58245;BME280;44550;43.864;25.986;2022-07-01T15:46:41;100776.31;;;36.85;26.48
58245;BME280;44550;43.864;25.986;2022-07-01T15:50:43;100768.78;;;36.97;26.43
58245;BME280;44550;43.864;25.986;2022-07-01T15:54:43;100762.44;;;36.97;25.97
58245;BME280;44550;43.864;25.986;2022-07-01T15:58:44;100762.31;;;36.80;25.99
58245;BME280;44550;43.864;25.986;2022-07-01T16:02:45;100751.97;;;36.84;25.53
58245;BME280;44550;43.864;25.986;2022-07-01T16:06:45;100752.88;;;36.92;25.48
58245;BME280;44550;43.864;25.986;2022-07-01T16:10:47;100758.97;;;36.86;26.03
58245;BME280;44550;43.864;25.986;2022-07-01T16:14:53;100759.44;;;36.82;25.68
58245;BME280;44550;43.864;25.986;2022-07-01T16:18:54;100755.94;;;36.72;27.26
58245;BME280;44550;43.864;25.986;2022-07-01T16:22:54;100762.50;;;37.05;26.63
58245;BME280;44550;43.864;25.986;2022-07-01T16:26:56;100756.41;;;37.11;26.61
58245;BME280;44550;43.864;25.986;2022-07-01T16:30:58;100761.09;;;37.27;26.92
58245;BME280;44550;43.864;25.986;2022-07-01T16:34:59;100758.91;;;37.30;27.53
58245;BME280;44550;43.864;25.986;2022-07-01T16:39:03;100755.16;;;37.31;26.95
58245;BME280;44550;43.864;25.986;2022-07-01T16:43:06;100746.53;;;37.10;26.85
58245;BME280;44550;43.864;25.986;2022-07-01T16:47:13;100763.00;;;37.00;27.30
58245;BME280;44550;43.864;25.986;2022-07-01T16:51:18;100764.63;;;36.67;28.01
58245;BME280;44550;43.864;25.986;2022-07-01T16:55:21;100769.34;;;36.47;28.33
58245;BME280;44550;43.864;25.986;2022-07-01T16:59:23;100781.19;;;36.38;28.03
58245;BME280;44550;43.864;25.986;2022-07-01T17:03:25;100785.63;;;36.03;28.90
58245;BME280;44550;43.864;25.986;2022-07-01T17:07:29;100786.94;;;35.89;29.40
58245;BME280;44550;43.864;25.986;2022-07-01T17:11:29;100794.22;;;35.71;29.71
58245;BME280;44550;43.864;25.986;2022-07-01T17:15:29;100777.75;;;35.35;30.44
58245;BME280;44550;43.864;25.986;2022-07-01T17:19:31;100786.44;;;34.92;31.39
58245;BME280;44550;43.864;25.986;2022-07-01T17:23:35;100803.50;;;34.74;32.78
58245;BME280;44550;43.864;25.986;2022-07-01T17:27:47;100797.59;;;34.50;34.00
58245;BME280;44550;43.864;25.986;2022-07-01T17:31:56;100816.75;;;34.38;34.67
58245;BME280;44550;43.864;25.986;2022-07-01T17:36:01;100761.25;;;33.92;35.15
58245;BME280;44550;43.864;25.986;2022-07-01T17:40:02;100802.31;;;34.19;35.19
58245;BME280;44550;43.864;25.986;2022-07-01T17:44:03;100803.31;;;34.18;35.50
58245;BME280;44550;43.864;25.986;2022-07-01T17:48:06;100818.75;;;34.36;35.29
58245;BME280;44550;43.864;25.986;2022-07-01T17:52:09;100823.06;;;34.49;35.23
58245;BME280;44550;43.864;25.986;2022-07-01T17:56:12;100828.94;;;34.44;35.19
58245;BME280;44550;43.864;25.986;2022-07-01T18:00:22;100826.44;;;34.12;35.91
58245;BME280;44550;43.864;25.986;2022-07-01T18:04:26;100840.25;;;33.99;36.49
58245;BME280;44550;43.864;25.986;2022-07-01T18:08:33;100830.13;;;33.71;37.07
58245;BME280;44550;43.864;25.986;2022-07-01T18:12:34;100843.00;;;33.68;37.27
58245;BME280;44550;43.864;25.986;2022-07-01T18:16:50;100835.16;;;33.75;37.33
58245;BME280;44550;43.864;25.986;2022-07-01T18:20:53;100857.75;;;33.85;37.30
58245;BME280;44550;43.864;25.986;2022-07-01T18:25:00;100850.59;;;33.75;37.59
58245;BME280;44550;43.864;25.986;2022-07-01T18:29:00;100863.56;;;33.71;37.92
58245;BME280;44550;43.864;25.986;2022-07-01T18:33:03;100873.63;;;33.59;38.20
58245;BME280;44550;43.864;25.986;2022-07-01T18:37:05;100867.03;;;33.52;38.30
58245;BME280;44550;43.864;25.986;2022-07-01T18:41:07;100868.34;;;33.37;38.89
58245;BME280;44550;43.864;25.986;2022-07-01T18:45:07;100870.16;;;33.27;39.26
58245;BME280;44550;43.864;25.986;2022-07-01T18:49:08;100871.84;;;33.28;39.56
58245;BME280;44550;43.864;25.986;2022-07-01T18:53:07;100878.09;;;33.18;39.63
58245;BME280;44550;43.864;25.986;2022-07-01T18:57:08;100881.66;;;33.19;39.67
58245;BME280;44550;43.864;25.986;2022-07-01T19:01:08;100870.22;;;33.15;39.45
58245;BME280;44550;43.864;25.986;2022-07-01T19:05:10;100887.78;;;33.21;39.61
58245;BME280;44550;43.864;25.986;2022-07-01T19:09:10;100869.69;;;33.21;39.54
58245;BME280;44550;43.864;25.986;2022-07-01T19:13:11;100904.50;;;33.47;39.76
58245;BME280;44550;43.864;25.986;2022-07-01T19:17:16;100909.03;;;33.58;39.39
58245;BME280;44550;43.864;25.986;2022-07-01T19:21:16;100910.19;;;33.44;39.94
58245;BME280;44550;43.864;25.986;2022-07-01T19:25:18;100914.75;;;33.43;40.00
58245;BME280;44550;43.864;25.986;2022-07-01T19:29:20;100921.53;;;33.49;39.92
58245;BME280;44550;43.864;25.986;2022-07-01T19:33:20;100937.38;;;33.33;40.48
58245;BME280;44550;43.864;25.986;2022-07-01T19:37:19;100929.78;;;33.27;40.51
58245;BME280;44550;43.864;25.986;2022-07-01T19:41:19;100951.44;;;33.06;41.10
58245;BME280;44550;43.864;25.986;2022-07-01T19:45:21;100954.75;;;32.66;41.77
58245;BME280;44550;43.864;25.986;2022-07-01T19:49:20;100959.44;;;32.41;43.25
58245;BME280;44550;43.864;25.986;2022-07-01T19:53:20;100953.03;;;32.54;43.32
58245;BME280;44550;43.864;25.986;2022-07-01T19:57:19;100951.44;;;32.62;43.53
58245;BME280;44550;43.864;25.986;2022-07-01T20:01:21;100954.84;;;32.64;42.58
58245;BME280;44550;43.864;25.986;2022-07-01T20:05:21;100958.59;;;32.52;42.91
58245;BME280;44550;43.864;25.986;2022-07-01T20:09:21;100958.72;;;32.39;42.58
58245;BME280;44550;43.864;25.986;2022-07-01T20:13:21;100961.13;;;31.75;43.54
58245;BME280;44550;43.864;25.986;2022-07-01T20:17:23;100965.63;;;31.17;44.77
58245;BME280;44550;43.864;25.986;2022-07-01T20:21:23;100963.25;;;30.64;46.04
58245;BME280;44550;43.864;25.986;2022-07-01T20:25:22;100964.44;;;30.10;47.47
58245;BME280;44550;43.864;25.986;2022-07-01T20:29:22;100960.84;;;30.10;47.61
58245;BME280;44550;43.864;25.986;2022-07-01T20:33:24;100961.09;;;29.94;47.94
58245;BME280;44550;43.864;25.986;2022-07-01T20:37:31;100953.22;;;29.91;48.08
58245;BME280;44550;43.864;25.986;2022-07-01T20:41:31;100963.47;;;29.86;48.15
58245;BME280;44550;43.864;25.986;2022-07-01T20:45:30;100967.91;;;29.74;48.52
58245;BME280;44550;43.864;25.986;2022-07-01T20:49:32;100973.00;;;29.52;49.09
58245;BME280;44550;43.864;25.986;2022-07-01T20:53:32;100980.84;;;29.29;49.56
58245;BME280;44550;43.864;25.986;2022-07-01T20:57:31;100982.03;;;28.84;50.78
58245;BME280;44550;43.864;25.986;2022-07-01T21:06:34;100972.16;;;28.43;52.63
58245;BME280;44550;43.864;25.986;2022-07-01T21:11:30;100973.75;;;28.31;52.94
58245;BME280;44550;43.864;25.986;2022-07-01T21:15:53;100975.44;;;28.05;53.58
58245;BME280;44550;43.864;25.986;2022-07-01T21:19:53;100970.69;;;27.94;53.62
58245;BME280;44550;43.864;25.986;2022-07-01T21:23:54;100972.25;;;27.84;53.85
58245;BME280;44550;43.864;25.986;2022-07-01T21:27:54;100968.66;;;27.69;54.21
58245;BME280;44550;43.864;25.986;2022-07-01T21:31:54;100945.88;;;27.46;54.49
58245;BME280;44550;43.864;25.986;2022-07-01T21:35:54;100965.25;;;27.51;54.69
58245;BME280;44550;43.864;25.986;2022-07-01T21:39:56;100969.94;;;27.48;54.84
58245;BME280;44550;43.864;25.986;2022-07-01T21:43:55;100969.38;;;27.43;54.89
58245;BME280;44550;43.864;25.986;2022-07-01T21:47:55;100970.88;;;27.32;55.04
58245;BME280;44550;43.864;25.986;2022-07-01T21:51:55;100970.38;;;27.26;55.22
58245;BME280;44550;43.864;25.986;2022-07-01T21:55:59;100970.00;;;27.32;55.03
58245;BME280;44550;43.864;25.986;2022-07-01T22:00:02;100978.00;;;27.17;55.48
58245;BME280;44550;43.864;25.986;2022-07-01T22:04:06;100974.97;;;27.08;55.81
58245;BME280;44550;43.864;25.986;2022-07-01T22:08:07;100976.44;;;26.98;56.07
58245;BME280;44550;43.864;25.986;2022-07-01T22:12:10;100975.69;;;26.96;56.20
58245;BME280;44550;43.864;25.986;2022-07-01T22:16:10;100975.25;;;26.87;56.47
58245;BME280;44550;43.864;25.986;2022-07-01T22:20:11;100984.31;;;27.01;56.15